Latest Coastal Weather Observations for Cape Leeuwin

IDW60701

Issued at 9:12 pm WST Friday 7 October 2022 (issued every 10 minutes, with the page automatically refreshed every 10 minutes)

About coastal observations | Map of coastal stations | Coastal observations for WA | Marine services | Other Formats
Station Details ID: 009518 Name: CAPE LEEUWIN Lat: -34.37 Lon: 115.14 Height: 13.0 m
Data from the previous 72 hours. | See also: Recent months at Cape Leeuwin
Date/Time
WST
Wind Sea
Height
m
Swell Vis
km
Cloud Weather Temp
°C
Press
MSL
hPa
Rain since
9am
mm
Dir  Spd
kts
Gust
kts
Height
m
Period
s
Dir
07/09:00pm W 8 10 - - - - - - - 14.6 1024.1 0.2
07/08:30pm WNW 9 12 - - - - - - - 14.7 1024.1 0.2
07/08:00pm W 9 11 - - - - - - - 14.4 1024.0 0.2
07/07:30pm W 11 14 - - - - - - - 14.4 1023.8 0.2
07/07:00pm W 11 15 - - - - - - - 14.6 1023.7 0.2
07/06:30pm W 11 13 - - - - - - - 14.8 1023.6 0.2
07/06:00pm W 9 13 - - - - - - - 15.3 1023.3 0.2
07/05:30pm W 10 12 - - - - - - - 15.7 1023.0 0.2
07/05:00pm W 9 13 - - - - - - - 16.1 1023.0 0.2
07/04:30pm W 10 14 - - - - - - - 16.6 1022.9 0.2
07/04:00pm W 10 14 - - - - - - - 16.7 1022.8 0.2
07/03:30pm WSW 11 14 - - - - - - - 17.0 1022.9 0.2
07/03:00pm WSW 11 14 - - - - - - - 17.2 1022.9 0.2
07/02:30pm WSW 10 11 - - - - - - - 17.2 1023.3 0.2
07/02:00pm WSW 10 13 - - - - - - - 17.0 1023.5 0.2
07/01:30pm WNW 8 11 - - - - - - - 16.4 1024.0 0.2
07/01:00pm W 7 9 - - - - - - - 17.3 1024.2 0.2
07/12:30pm W 7 9 - - - - - - - 16.9 1024.5 0.2
07/12:00pm WSW 8 10 - - - - - - Recent precip. 16.9 1024.7 0.2
07/11:30am W 7 9 - - - - - - - 16.1 1024.9 0.0
07/11:00am W 9 11 - - - - - - - 15.9 1025.0 0.0
07/10:30am W 12 15 - - - - - - - 15.3 1025.3 0.0
07/10:00am W 15 17 - - - - - - - 15.2 1025.4 0.0
07/09:30am W 9 15 - - - - - - - 15.6 1025.3 0.0
07/09:00am WSW 5 7 - - - - - - - 15.8 1025.2 0.6
07/08:30am W 7 9 - - - - - - - 14.9 1025.0 0.6
07/08:00am WSW 7 9 - - - - - - - 14.8 1024.8 0.6
07/07:30am SW 8 11 - - - - - - - 13.8 1024.6 0.6
07/07:00am SW 8 12 - - - - - - - 13.0 1024.2 0.6
07/06:30am WSW 7 9 - - - - - - - 12.6 1023.6 0.6
07/06:00am SW 10 13 - - - - - - - 12.7 1023.5 0.6
07/05:30am WSW 8 10 - - - - - - - 12.5 1023.2 0.6
07/05:00am WSW 9 12 - - - - - - - 13.0 1022.9 0.6
07/04:30am SW 9 12 - - - - - - - 12.5 1022.7 0.6
07/04:00am SW 8 11 - - - - - - - 12.0 1022.5 0.6
07/03:30am SSW 8 11 - - - - - - - 12.2 1022.4 0.6
07/03:00am SW 10 13 - - - - - - - 12.8 1022.3 0.6
07/02:30am SSW 10 12 - - - - - - - 12.7 1022.4 0.6
07/02:00am SSW 9 13 - - - - - - - 12.7 1022.2 0.6
07/01:30am SSW 13 16 - - - - - - - 12.3 1022.3 0.6
07/01:00am SSW 11 14 - - - - - - - 12.5 1022.4 0.6
07/12:30am S 10 15 - - - - - - - 12.4 1022.4 0.6
07/12:00am SSW 11 17 - - - - - - - 12.4 1022.7 0.6
 
Date/Time
WST
Wind Sea
Height
m
Swell Vis
km
Cloud Weather Temp
°C
Press
MSL
hPa
Rain since
9am
mm
Dir  Spd
kts
Gust
kts
Height
m
Period
s
Dir
06/11:30pm SSW 8 14 - - - - - - - 12.0 1022.7 0.6
06/11:00pm SSE 8 11 - - - - - - - 11.9 1022.8 0.6
06/10:30pm S 8 11 - - - - - - - 11.6 1022.9 0.6
06/10:00pm SSW 12 16 - - - - - - - 11.3 1023.1 0.6
06/09:30pm SSW 13 16 - - - - - - - 12.4 1023.1 0.4
06/09:00pm SSW 16 23 - - - - - - - 12.5 1023.4 0.4
06/08:30pm SSW 13 16 - - - - - - - 13.0 1023.2 0.4
06/08:00pm SSW 11 13 - - - - - - - 12.9 1022.9 0.4
06/07:30pm SW 13 16 - - - - - - - 13.1 1022.5 0.4
06/07:00pm SSW 15 19 - - - - - - - 13.6 1022.3 0.4
06/06:30pm SSW 10 13 - - - - - - - 13.2 1022.2 0.4
06/06:00pm SW 13 16 - - - - - - - 13.4 1021.8 0.4
06/05:30pm SW 14 17 - - - - - - - 13.9 1021.7 0.4
06/05:00pm SSW 14 18 - - - - - - - 13.7 1021.7 0.4
06/04:30pm SW 13 17 - - - - - - - 14.3 1021.4 0.4
06/04:00pm SW 14 17 - - - - - - - 15.4 1021.2 0.4
06/03:30pm SW 16 21 - - - - - - - 14.6 1021.1 0.4
06/03:00pm SW 15 21 - - - - - - Recent precip. 13.2 1021.0 0.4
06/02:30pm SW 14 17 - - - - - - - 16.4 1020.9 0.2
06/02:00pm SW 19 26 - - - - - - - 15.2 1021.1 0.2
06/01:30pm WSW 17 21 - - - - - - - 15.5 1021.0 0.2
06/01:00pm SW 21 25 - - - - - - - 15.1 1021.1 0.2
06/12:30pm WSW 15 20 - - - - - - - 16.1 1021.2 0.0
06/12:00pm WSW 24 30 - - - - - - - 13.6 1021.5 0.0
06/11:41am WSW 20 31 - - - - - - - 15.4 1021.3 0.0
06/11:30am WSW 18 22 - - - - - - - 15.7 1021.5 0.0
06/11:00am WSW 19 23 - - - - - - - 15.8 1021.4 0.0
06/10:30am WSW 18 23 - - - - - - - 15.7 1021.4 0.0
06/10:00am WSW 22 27 - - - - - - - 14.6 1021.4 0.0
06/09:30am WSW 21 27 - - - - - - - 14.8 1021.3 0.0
06/09:00am WSW 22 26 - - - - - - - 14.4 1021.0 0.6
06/08:30am WSW 27 35 - - - - - - - 13.6 1021.0 0.6
06/08:18am WSW 23 33 - - - - - - - 14.1 1020.6 0.6
06/08:00am WSW 23 29 - - - - - - - 14.6 1020.3 0.6
06/07:30am WSW 23 34 - - - - - - - 12.7 1020.0 0.6
06/07:29am WSW 24 34 - - - - - - - 12.7 1020.1 0.6
06/07:00am W 24 28 - - - - - - - 13.4 1019.6 0.6
06/06:30am WSW 25 30 - - - - - - - 13.3 1019.4 0.6
06/06:00am WSW 25 30 - - - - - - - 13.6 1018.8 0.6
06/05:30am WSW 22 27 - - - - - - - 13.4 1018.5 0.6
06/05:00am WSW 25 29 - - - - - - - 13.4 1018.3 0.6
06/04:30am WSW 22 28 - - - - - - - 13.4 1018.1 0.6
06/04:00am WSW 24 28 - - - - - - - 13.1 1017.9 0.6
06/03:30am WSW 23 28 - - - - - - - 13.2 1018.0 0.6
06/03:00am WSW 24 30 - - - - - - - 13.1 1018.1 0.6
06/02:30am WSW 21 27 - - - - - - - 13.3 1018.0 0.6
06/02:00am WSW 22 31 - - - - - - - 13.2 1018.0 0.6
06/01:30am WSW 23 27 - - - - - - - 12.9 1018.0 0.6
06/01:00am WSW 23 28 - - - - - - - 13.0 1017.9 0.6
06/12:30am WSW 21 27 - - - - - - - 12.8 1018.1 0.6
06/12:00am WSW 19 25 - - - - - - - 13.0 1018.1 0.6
 
Date/Time
WST
Wind Sea
Height
m
Swell Vis
km
Cloud Weather Temp
°C
Press
MSL
hPa
Rain since
9am
mm
Dir  Spd
kts
Gust
kts
Height
m
Period
s
Dir
05/11:30pm SW 20 25 - - - - - - - 12.5 1018.1 0.6
05/11:00pm WSW 21 24 - - - - - - - 12.6 1018.2 0.6
05/10:30pm WSW 24 29 - - - - - - - 12.8 1018.1 0.6
05/10:00pm WSW 22 29 - - - - - - - 12.4 1018.1 0.6
05/09:30pm SW 24 29 - - - - - - - 11.3 1018.4 0.6
05/09:12pm WSW 22 34 - - - - - - - 13.1 1018.2 0.4
05/09:00pm WSW 21 26 - - - - - - - 13.0 1018.0 0.4
05/08:30pm WSW 23 28 - - - - - - - 12.9 1018.0 0.4
05/08:00pm WSW 23 29 - - - - - - - 13.0 1017.5 0.4
05/07:30pm WSW 25 30 - - - - - - - 13.1 1017.3 0.4
05/07:00pm WSW 25 29 - - - - - - - 12.7 1016.8 0.0
05/06:30pm WSW 25 29 - - - - - - - 12.5 1016.6 0.0
05/06:00pm WSW 21 24 - - - - - - - 13.0 1016.4 0.0
05/05:30pm WSW 20 25 - - - - - - - 13.7 1016.0 0.0
05/05:00pm WSW 21 27 - - - - - - - 14.3 1015.8 0.0
05/04:30pm WSW 21 26 - - - - - - - 14.2 1015.4 0.0
05/04:00pm SW 21 27 - - - - - - - 14.2 1015.2 0.0
05/03:30pm WSW 21 29 - - - - - - - 13.8 1014.9 0.0
05/03:00pm WSW 20 26 - - - - - - - 15.1 1014.4 0.0
05/02:30pm WSW 22 27 - - - - - - - 15.1 1014.3 0.0
05/02:00pm SW 22 27 - - - - - - - 15.7 1014.0 0.0
05/01:30pm SW 23 27 - - - - - - - 15.5 1013.8 0.0
05/01:00pm SW 24 29 - - - - - - - 14.9 1013.7 0.0
05/12:30pm SW 23 29 - - - - - - - 14.6 1013.5 0.0
05/12:00pm SW 25 30 - - - - - - - 14.5 1013.3 0.0
05/11:30am SW 24 30 - - - - - - - 13.4 1013.1 0.0
05/11:00am SW 22 27 - - - - - - - 14.1 1012.8 0.0
05/10:30am SW 23 28 - - - - - - - 13.8 1012.4 0.0
05/10:00am SW 20 25 - - - - - - - 14.4 1012.4 0.0
05/09:30am SW 28 33 - - - - - - - 12.7 1012.1 0.0
05/09:16am SW 23 33 - - - - - - - 14.0 1011.6 0.0
05/09:00am SW 21 27 - - - - - - - 14.6 1011.4 8.2
05/08:30am SW 21 27 - - - - - - - 14.8 1010.8 8.2
05/08:00am SW 26 32 - - - - - - - 14.0 1010.4 8.2
05/07:30am SW 25 31 - - - - - - - 14.1 1009.8 8.2
05/07:01am SW 24 34 - - - - - - - 13.2 1009.3 8.2
05/07:00am SW 25 34 - - - - - - - 13.0 1009.2 8.2
05/06:51am SW 24 34 - - - - - - - 14.4 1009.0 7.2
05/06:30am WSW 28 34 - - - - - - - 14.4 1008.5 7.2
05/06:00am WSW 27 32 - - - - - - - 14.4 1007.9 7.2
05/05:31am WSW 24 36 - - - - - - - 14.4 1007.4 7.2
05/05:30am WSW 23 29 - - - - - - - 14.6 1007.5 7.2
05/05:00am WSW 24 28 - - - - - - - 14.5 1007.1 7.2
05/04:30am WSW 26 30 - - - - - - - 14.7 1006.7 7.2
05/04:00am WSW 26 30 - - - - - - - 14.7 1006.2 7.2
05/03:30am WSW 28 34 - - - - - - - 14.8 1005.6 7.2
05/03:00am W 28 34 - - - - - - - 15.5 1005.3 7.2
05/02:30am W 29 33 - - - - - - - 15.6 1004.9 7.2
05/02:00am W 26 32 - - - - - - - 15.9 1004.8 7.2
05/01:30am W 27 32 - - - - - - - 15.8 1004.8 7.2
05/01:12am W 24 37 - - - - - - - 15.9 1004.6 7.0
05/01:00am W 27 33 - - - - - - - 15.8 1004.7 7.0
05/12:39am NW 23 32 - - - - - - - 15.9 1004.7 7.0
05/12:35am NNW 19 29 - - - - - - - 15.8 1004.7 7.0
05/12:30am NNW 17 22 - - - - - - - 15.3 1004.8 7.0
05/12:00am N 17 21 - - - - - - Rain 15.0 1005.0 5.6
 
Date/Time
WST
Wind Sea
Height
m
Swell Vis
km
Cloud Weather Temp
°C
Press
MSL
hPa
Rain since
9am
mm
Dir  Spd
kts
Gust
kts
Height
m
Period
s
Dir
04/11:30pm NNW 17 22 - - - - - - - 15.2 1005.4 5.0
04/11:00pm NNW 21 26 - - - - - - - 15.2 1006.0 4.2
04/10:30pm NW 23 27 - - - - - - - 15.6 1006.5 3.0
04/10:00pm WNW 29 33 - - - - - - - 15.3 1006.5 1.2
04/09:37pm NNW 17 27 - - - - - - - 16.8 1006.5 0.4
04/09:36pm NNW 17 27 - - - - - - - 16.9 1006.6 0.4
04/09:30pm NNW 18 22 - - - - - - - 16.8 1006.6 0.4
04/09:17pm NW 19 31 - - - - - - - 16.2 1006.7 0.4
04/09:13pm NNW 16 29 - - - - - - - 16.6 1006.9 0.4

Other formats

Comma delimited format used in spreadsheet applications
http://www.bom.gov.au/fwo/IDW60701/IDW60701.94601.axf

JavaScript Object Notation format (JSON) in row-major order
http://www.bom.gov.au/fwo/IDW60701/IDW60701.94601.json

Data quality

Most of these data are generated automatically and are frequently updated. Quality checks on data are not normally performed. It is possible for incorrect values to appear. Refer to information at About Latest Weather Observations and please check the disclaimer before using these data.